sensor_id;sensor_type;location;lat;lon;timestamp;P1;durP1;ratioP1;P2;durP2;ratioP2
61254;SDS011;47128;47.530;8.584;2024-01-30T00:02:10;37.35;;;9.98;;
61254;SDS011;47128;47.530;8.584;2024-01-30T00:04:36;31.27;;;9.70;;
61254;SDS011;47128;47.530;8.584;2024-01-30T00:07:02;24.42;;;8.82;;
61254;SDS011;47128;47.530;8.584;2024-01-30T00:09:28;24.27;;;9.82;;
61254;SDS011;47128;47.530;8.584;2024-01-30T00:11:55;26.83;;;10.50;;
61254;SDS011;47128;47.530;8.584;2024-01-30T00:14:21;22.80;;;9.77;;
61254;SDS011;47128;47.530;8.584;2024-01-30T00:16:48;34.88;;;13.65;;
61254;SDS011;47128;47.530;8.584;2024-01-30T00:19:14;41.00;;;12.95;;
61254;SDS011;47128;47.530;8.584;2024-01-30T00:21:40;33.05;;;13.13;;
61254;SDS011;47128;47.530;8.584;2024-01-30T00:24:06;28.60;;;10.50;;
61254;SDS011;47128;47.530;8.584;2024-01-30T00:26:32;30.80;;;11.45;;
61254;SDS011;47128;47.530;8.584;2024-01-30T00:28:59;18.42;;;10.02;;
61254;SDS011;47128;47.530;8.584;2024-01-30T00:31:25;18.25;;;8.15;;
61254;SDS011;47128;47.530;8.584;2024-01-30T00:33:51;32.38;;;9.15;;
61254;SDS011;47128;47.530;8.584;2024-01-30T00:36:17;44.95;;;10.50;;
61254;SDS011;47128;47.530;8.584;2024-01-30T00:38:43;45.33;;;10.25;;
61254;SDS011;47128;47.530;8.584;2024-01-30T00:41:09;69.90;;;11.38;;
61254;SDS011;47128;47.530;8.584;2024-01-30T00:43:36;45.60;;;10.73;;
61254;SDS011;47128;47.530;8.584;2024-01-30T00:46:02;54.50;;;10.55;;
61254;SDS011;47128;47.530;8.584;2024-01-30T00:48:28;32.78;;;10.98;;
61254;SDS011;47128;47.530;8.584;2024-01-30T00:50:54;62.25;;;11.48;;
61254;SDS011;47128;47.530;8.584;2024-01-30T00:53:20;35.20;;;9.65;;
61254;SDS011;47128;47.530;8.584;2024-01-30T00:55:46;28.92;;;10.27;;
61254;SDS011;47128;47.530;8.584;2024-01-30T00:58:12;21.75;;;9.38;;
61254;SDS011;47128;47.530;8.584;2024-01-30T01:00:39;30.35;;;9.32;;
61254;SDS011;47128;47.530;8.584;2024-01-30T01:03:05;27.67;;;8.65;;
61254;SDS011;47128;47.530;8.584;2024-01-30T01:05:31;31.00;;;9.18;;
61254;SDS011;47128;47.530;8.584;2024-01-30T01:07:57;25.00;;;8.60;;
61254;SDS011;47128;47.530;8.584;2024-01-30T01:10:23;18.85;;;8.05;;
61254;SDS011;47128;47.530;8.584;2024-01-30T01:12:49;26.38;;;7.72;;
61254;SDS011;47128;47.530;8.584;2024-01-30T01:15:15;25.92;;;7.05;;
61254;SDS011;47128;47.530;8.584;2024-01-30T01:17:41;19.15;;;7.97;;
61254;SDS011;47128;47.530;8.584;2024-01-30T01:20:07;23.80;;;8.82;;
61254;SDS011;47128;47.530;8.584;2024-01-30T01:22:37;19.58;;;8.07;;
61254;SDS011;47128;47.530;8.584;2024-01-30T01:25:04;20.45;;;7.75;;
61254;SDS011;47128;47.530;8.584;2024-01-30T01:27:34;16.23;;;7.97;;
61254;SDS011;47128;47.530;8.584;2024-01-30T01:30:05;14.43;;;7.80;;
61254;SDS011;47128;47.530;8.584;2024-01-30T01:32:34;20.85;;;9.48;;
61254;SDS011;47128;47.530;8.584;2024-01-30T01:34:59;11.43;;;7.65;;
61254;SDS011;47128;47.530;8.584;2024-01-30T01:37:25;15.63;;;7.57;;
61254;SDS011;47128;47.530;8.584;2024-01-30T01:39:52;12.73;;;7.22;;
61254;SDS011;47128;47.530;8.584;2024-01-30T01:42:18;10.60;;;6.43;;
61254;SDS011;47128;47.530;8.584;2024-01-30T01:44:44;16.50;;;7.35;;
61254;SDS011;47128;47.530;8.584;2024-01-30T01:47:10;9.73;;;6.07;;
61254;SDS011;47128;47.530;8.584;2024-01-30T01:49:36;12.80;;;6.60;;
61254;SDS011;47128;47.530;8.584;2024-01-30T01:52:03;9.05;;;5.95;;
61254;SDS011;47128;47.530;8.584;2024-01-30T01:54:30;8.95;;;6.18;;
61254;SDS011;47128;47.530;8.584;2024-01-30T01:56:56;11.70;;;6.35;;
61254;SDS011;47128;47.530;8.584;2024-01-30T01:59:22;10.38;;;6.32;;
61254;SDS011;47128;47.530;8.584;2024-01-30T02:01:49;14.48;;;6.95;;
61254;SDS011;47128;47.530;8.584;2024-01-30T02:04:16;11.95;;;6.88;;
61254;SDS011;47128;47.530;8.584;2024-01-30T02:06:43;9.00;;;5.88;;
61254;SDS011;47128;47.530;8.584;2024-01-30T02:09:09;15.75;;;6.85;;
61254;SDS011;47128;47.530;8.584;2024-01-30T02:11:35;7.50;;;5.35;;
61254;SDS011;47128;47.530;8.584;2024-01-30T02:14:04;16.58;;;6.57;;
61254;SDS011;47128;47.530;8.584;2024-01-30T02:16:31;18.50;;;7.22;;
61254;SDS011;47128;47.530;8.584;2024-01-30T02:18:57;45.78;;;8.50;;
61254;SDS011;47128;47.530;8.584;2024-01-30T02:21:23;23.00;;;8.63;;
61254;SDS011;47128;47.530;8.584;2024-01-30T02:23:50;16.27;;;6.50;;
61254;SDS011;47128;47.530;8.584;2024-01-30T02:26:16;31.17;;;7.78;;
61254;SDS011;47128;47.530;8.584;2024-01-30T02:28:42;18.40;;;7.20;;
61254;SDS011;47128;47.530;8.584;2024-01-30T02:31:08;13.02;;;7.60;;
61254;SDS011;47128;47.530;8.584;2024-01-30T02:33:34;10.35;;;6.60;;
61254;SDS011;47128;47.530;8.584;2024-01-30T02:36:00;11.75;;;6.68;;
61254;SDS011;47128;47.530;8.584;2024-01-30T02:38:26;8.68;;;5.70;;
61254;SDS011;47128;47.530;8.584;2024-01-30T02:40:53;8.82;;;5.15;;
61254;SDS011;47128;47.530;8.584;2024-01-30T02:43:21;7.47;;;4.82;;
61254;SDS011;47128;47.530;8.584;2024-01-30T02:45:47;9.80;;;5.32;;
61254;SDS011;47128;47.530;8.584;2024-01-30T02:48:16;8.25;;;5.70;;
61254;SDS011;47128;47.530;8.584;2024-01-30T02:50:42;7.32;;;5.28;;
61254;SDS011;47128;47.530;8.584;2024-01-30T02:53:08;8.13;;;5.20;;
61254;SDS011;47128;47.530;8.584;2024-01-30T02:55:34;8.93;;;5.60;;
61254;SDS011;47128;47.530;8.584;2024-01-30T02:58:01;12.85;;;5.78;;
61254;SDS011;47128;47.530;8.584;2024-01-30T03:00:27;9.27;;;6.15;;
61254;SDS011;47128;47.530;8.584;2024-01-30T03:02:53;11.38;;;6.50;;
61254;SDS011;47128;47.530;8.584;2024-01-30T03:05:19;19.67;;;7.07;;
61254;SDS011;47128;47.530;8.584;2024-01-30T03:07:45;12.23;;;5.88;;
61254;SDS011;47128;47.530;8.584;2024-01-30T03:10:12;16.23;;;6.45;;
61254;SDS011;47128;47.530;8.584;2024-01-30T03:12:38;12.98;;;5.95;;
61254;SDS011;47128;47.530;8.584;2024-01-30T03:15:04;12.63;;;5.93;;
61254;SDS011;47128;47.530;8.584;2024-01-30T03:17:30;14.32;;;5.63;;
61254;SDS011;47128;47.530;8.584;2024-01-30T03:19:57;10.10;;;6.40;;
61254;SDS011;47128;47.530;8.584;2024-01-30T03:22:23;14.82;;;6.65;;
61254;SDS011;47128;47.530;8.584;2024-01-30T03:24:49;9.85;;;5.85;;
61254;SDS011;47128;47.530;8.584;2024-01-30T03:27:16;21.08;;;7.18;;
61254;SDS011;47128;47.530;8.584;2024-01-30T03:29:42;11.57;;;6.18;;
61254;SDS011;47128;47.530;8.584;2024-01-30T03:32:08;12.00;;;6.28;;
61254;SDS011;47128;47.530;8.584;2024-01-30T03:34:35;13.00;;;6.70;;
61254;SDS011;47128;47.530;8.584;2024-01-30T03:37:01;16.13;;;7.32;;
61254;SDS011;47128;47.530;8.584;2024-01-30T03:39:27;16.55;;;7.55;;
61254;SDS011;47128;47.530;8.584;2024-01-30T03:41:53;10.85;;;6.75;;
61254;SDS011;47128;47.530;8.584;2024-01-30T03:44:19;15.55;;;7.00;;
61254;SDS011;47128;47.530;8.584;2024-01-30T03:46:46;16.80;;;6.38;;
61254;SDS011;47128;47.530;8.584;2024-01-30T03:49:12;9.65;;;6.00;;
61254;SDS011;47128;47.530;8.584;2024-01-30T03:51:38;10.95;;;6.50;;
61254;SDS011;47128;47.530;8.584;2024-01-30T03:54:04;9.35;;;6.28;;
61254;SDS011;47128;47.530;8.584;2024-01-30T03:56:30;12.13;;;6.15;;
61254;SDS011;47128;47.530;8.584;2024-01-30T03:58:56;12.75;;;6.68;;
61254;SDS011;47128;47.530;8.584;2024-01-30T04:01:23;12.25;;;6.68;;
61254;SDS011;47128;47.530;8.584;2024-01-30T04:03:50;13.32;;;6.70;;
61254;SDS011;47128;47.530;8.584;2024-01-30T04:06:16;9.13;;;6.32;;
61254;SDS011;47128;47.530;8.584;2024-01-30T04:08:42;12.00;;;6.88;;
61254;SDS011;47128;47.530;8.584;2024-01-30T04:11:08;10.68;;;6.32;;
61254;SDS011;47128;47.530;8.584;2024-01-30T04:13:34;10.05;;;6.00;;
61254;SDS011;47128;47.530;8.584;2024-01-30T04:16:01;9.93;;;5.38;;
61254;SDS011;47128;47.530;8.584;2024-01-30T04:18:27;12.30;;;5.88;;
61254;SDS011;47128;47.530;8.584;2024-01-30T04:20:53;9.43;;;5.45;;
61254;SDS011;47128;47.530;8.584;2024-01-30T04:23:20;10.55;;;5.88;;
61254;SDS011;47128;47.530;8.584;2024-01-30T04:25:46;12.35;;;6.25;;
61254;SDS011;47128;47.530;8.584;2024-01-30T04:28:12;13.98;;;6.80;;
61254;SDS011;47128;47.530;8.584;2024-01-30T04:30:38;20.98;;;6.60;;
61254;SDS011;47128;47.530;8.584;2024-01-30T04:33:04;11.48;;;6.50;;
61254;SDS011;47128;47.530;8.584;2024-01-30T04:35:30;10.25;;;5.40;;
61254;SDS011;47128;47.530;8.584;2024-01-30T04:37:56;20.60;;;6.05;;
61254;SDS011;47128;47.530;8.584;2024-01-30T04:40:23;39.80;;;7.15;;
61254;SDS011;47128;47.530;8.584;2024-01-30T04:42:51;29.92;;;7.15;;
61254;SDS011;47128;47.530;8.584;2024-01-30T04:45:17;15.80;;;5.95;;
61254;SDS011;47128;47.530;8.584;2024-01-30T04:47:46;14.48;;;6.97;;
61254;SDS011;47128;47.530;8.584;2024-01-30T04:50:13;13.82;;;6.28;;
61254;SDS011;47128;47.530;8.584;2024-01-30T04:52:39;12.27;;;7.38;;
61254;SDS011;47128;47.530;8.584;2024-01-30T04:55:05;10.45;;;5.78;;
61254;SDS011;47128;47.530;8.584;2024-01-30T04:57:32;14.18;;;6.22;;
61254;SDS011;47128;47.530;8.584;2024-01-30T04:59:58;16.70;;;6.53;;
61254;SDS011;47128;47.530;8.584;2024-01-30T05:02:24;20.70;;;7.28;;
61254;SDS011;47128;47.530;8.584;2024-01-30T05:04:51;10.98;;;6.40;;
61254;SDS011;47128;47.530;8.584;2024-01-30T05:07:17;31.10;;;7.55;;
61254;SDS011;47128;47.530;8.584;2024-01-30T05:09:43;18.25;;;6.97;;
61254;SDS011;47128;47.530;8.584;2024-01-30T05:12:09;17.90;;;6.28;;
61254;SDS011;47128;47.530;8.584;2024-01-30T05:14:35;24.85;;;7.20;;
61254;SDS011;47128;47.530;8.584;2024-01-30T05:17:01;14.80;;;7.10;;
61254;SDS011;47128;47.530;8.584;2024-01-30T05:19:28;10.88;;;6.30;;
61254;SDS011;47128;47.530;8.584;2024-01-30T05:21:54;14.82;;;6.32;;
61254;SDS011;47128;47.530;8.584;2024-01-30T05:24:20;10.38;;;6.53;;
61254;SDS011;47128;47.530;8.584;2024-01-30T05:26:46;12.30;;;6.40;;
61254;SDS011;47128;47.530;8.584;2024-01-30T05:29:13;10.25;;;6.00;;
61254;SDS011;47128;47.530;8.584;2024-01-30T05:31:39;14.20;;;6.72;;
61254;SDS011;47128;47.530;8.584;2024-01-30T05:34:05;10.20;;;6.43;;
61254;SDS011;47128;47.530;8.584;2024-01-30T05:36:31;16.27;;;7.07;;
61254;SDS011;47128;47.530;8.584;2024-01-30T05:38:57;12.05;;;7.18;;
61254;SDS011;47128;47.530;8.584;2024-01-30T05:41:24;12.07;;;6.25;;
61254;SDS011;47128;47.530;8.584;2024-01-30T05:43:50;13.48;;;6.40;;
61254;SDS011;47128;47.530;8.584;2024-01-30T05:46:19;10.38;;;5.38;;
61254;SDS011;47128;47.530;8.584;2024-01-30T05:48:45;9.57;;;5.78;;
61254;SDS011;47128;47.530;8.584;2024-01-30T05:51:11;10.25;;;5.80;;
61254;SDS011;47128;47.530;8.584;2024-01-30T05:53:37;8.18;;;5.50;;
61254;SDS011;47128;47.530;8.584;2024-01-30T05:56:03;9.60;;;5.25;;
61254;SDS011;47128;47.530;8.584;2024-01-30T05:58:29;11.02;;;5.45;;
61254;SDS011;47128;47.530;8.584;2024-01-30T06:00:58;7.95;;;4.97;;
61254;SDS011;47128;47.530;8.584;2024-01-30T06:03:24;10.90;;;5.75;;
61254;SDS011;47128;47.530;8.584;2024-01-30T06:05:51;8.70;;;5.43;;
61254;SDS011;47128;47.530;8.584;2024-01-30T06:08:17;11.63;;;6.20;;
61254;SDS011;47128;47.530;8.584;2024-01-30T06:10:43;9.65;;;6.22;;
61254;SDS011;47128;47.530;8.584;2024-01-30T06:13:09;8.00;;;5.68;;
61254;SDS011;47128;47.530;8.584;2024-01-30T06:15:35;9.48;;;5.07;;
61254;SDS011;47128;47.530;8.584;2024-01-30T06:18:01;9.68;;;6.18;;
61254;SDS011;47128;47.530;8.584;2024-01-30T06:20:28;11.68;;;5.88;;
61254;SDS011;47128;47.530;8.584;2024-01-30T06:22:54;9.98;;;5.95;;
61254;SDS011;47128;47.530;8.584;2024-01-30T06:25:20;8.10;;;5.53;;
61254;SDS011;47128;47.530;8.584;2024-01-30T06:27:46;9.40;;;5.60;;
61254;SDS011;47128;47.530;8.584;2024-01-30T06:30:13;9.40;;;5.55;;
61254;SDS011;47128;47.530;8.584;2024-01-30T06:32:39;9.05;;;5.65;;
61254;SDS011;47128;47.530;8.584;2024-01-30T06:35:05;10.93;;;6.00;;
61254;SDS011;47128;47.530;8.584;2024-01-30T06:37:31;9.75;;;5.57;;
61254;SDS011;47128;47.530;8.584;2024-01-30T06:39:58;8.02;;;5.90;;
61254;SDS011;47128;47.530;8.584;2024-01-30T06:42:24;11.73;;;6.82;;
61254;SDS011;47128;47.530;8.584;2024-01-30T06:44:50;10.27;;;6.20;;
61254;SDS011;47128;47.530;8.584;2024-01-30T06:47:16;10.05;;;6.15;;
61254;SDS011;47128;47.530;8.584;2024-01-30T06:49:43;12.38;;;6.72;;
61254;SDS011;47128;47.530;8.584;2024-01-30T06:52:10;13.43;;;7.82;;
61254;SDS011;47128;47.530;8.584;2024-01-30T06:54:39;15.48;;;8.98;;
61254;SDS011;47128;47.530;8.584;2024-01-30T06:57:05;18.48;;;10.52;;
61254;SDS011;47128;47.530;8.584;2024-01-30T06:59:36;15.00;;;7.90;;
61254;SDS011;47128;47.530;8.584;2024-01-30T07:02:09;11.23;;;7.43;;
61254;SDS011;47128;47.530;8.584;2024-01-30T07:04:36;10.80;;;7.85;;
61254;SDS011;47128;47.530;8.584;2024-01-30T07:07:07;11.73;;;7.63;;
61254;SDS011;47128;47.530;8.584;2024-01-30T07:09:37;11.82;;;6.72;;
61254;SDS011;47128;47.530;8.584;2024-01-30T07:12:04;11.48;;;6.50;;
61254;SDS011;47128;47.530;8.584;2024-01-30T07:14:31;11.90;;;6.43;;
61254;SDS011;47128;47.530;8.584;2024-01-30T07:16:57;9.52;;;6.10;;
61254;SDS011;47128;47.530;8.584;2024-01-30T07:19:23;10.10;;;6.05;;
61254;SDS011;47128;47.530;8.584;2024-01-30T07:25:05;11.75;;;6.78;;
61254;SDS011;47128;47.530;8.584;2024-01-30T07:27:31;12.23;;;6.68;;
61254;SDS011;47128;47.530;8.584;2024-01-30T07:29:57;10.27;;;6.47;;
61254;SDS011;47128;47.530;8.584;2024-01-30T07:32:24;11.23;;;7.05;;
61254;SDS011;47128;47.530;8.584;2024-01-30T07:34:50;11.35;;;6.93;;
61254;SDS011;47128;47.530;8.584;2024-01-30T07:37:19;10.57;;;6.57;;
61254;SDS011;47128;47.530;8.584;2024-01-30T07:39:46;11.73;;;7.00;;
61254;SDS011;47128;47.530;8.584;2024-01-30T07:42:19;13.18;;;7.50;;
61254;SDS011;47128;47.530;8.584;2024-01-30T07:44:46;12.20;;;7.25;;
61254;SDS011;47128;47.530;8.584;2024-01-30T07:47:13;13.02;;;7.60;;
61254;SDS011;47128;47.530;8.584;2024-01-30T07:49:39;14.25;;;7.43;;
61254;SDS011;47128;47.530;8.584;2024-01-30T07:52:06;13.75;;;7.28;;
61254;SDS011;47128;47.530;8.584;2024-01-30T07:54:34;14.38;;;7.80;;
61254;SDS011;47128;47.530;8.584;2024-01-30T07:57:28;16.35;;;7.15;;
61254;SDS011;47128;47.530;8.584;2024-01-30T07:59:55;22.35;;;9.63;;
61254;SDS011;47128;47.530;8.584;2024-01-30T08:02:22;16.38;;;8.40;;
61254;SDS011;47128;47.530;8.584;2024-01-30T08:04:49;14.65;;;7.90;;
61254;SDS011;47128;47.530;8.584;2024-01-30T08:07:15;15.88;;;7.75;;
61254;SDS011;47128;47.530;8.584;2024-01-30T08:09:43;12.23;;;6.85;;
61254;SDS011;47128;47.530;8.584;2024-01-30T08:12:09;10.85;;;6.35;;
61254;SDS011;47128;47.530;8.584;2024-01-30T08:14:35;10.60;;;6.90;;
61254;SDS011;47128;47.530;8.584;2024-01-30T08:17:01;16.65;;;9.50;;
61254;SDS011;47128;47.530;8.584;2024-01-30T08:19:28;19.70;;;10.10;;
61254;SDS011;47128;47.530;8.584;2024-01-30T08:21:54;17.50;;;8.63;;
61254;SDS011;47128;47.530;8.584;2024-01-30T08:24:21;11.15;;;7.70;;
61254;SDS011;47128;47.530;8.584;2024-01-30T08:26:47;12.68;;;7.65;;
61254;SDS011;47128;47.530;8.584;2024-01-30T08:29:14;12.88;;;7.22;;
61254;SDS011;47128;47.530;8.584;2024-01-30T08:31:41;12.10;;;7.50;;
61254;SDS011;47128;47.530;8.584;2024-01-30T08:34:08;11.32;;;6.97;;
61254;SDS011;47128;47.530;8.584;2024-01-30T08:36:35;10.70;;;6.75;;
61254;SDS011;47128;47.530;8.584;2024-01-30T08:39:02;16.15;;;6.85;;
61254;SDS011;47128;47.530;8.584;2024-01-30T08:41:28;12.20;;;7.30;;
61254;SDS011;47128;47.530;8.584;2024-01-30T08:43:55;11.32;;;7.38;;
61254;SDS011;47128;47.530;8.584;2024-01-30T08:46:21;13.73;;;8.15;;
61254;SDS011;47128;47.530;8.584;2024-01-30T08:48:48;15.48;;;7.55;;
61254;SDS011;47128;47.530;8.584;2024-01-30T08:54:18;10.82;;;7.47;;
61254;SDS011;47128;47.530;8.584;2024-01-30T08:56:47;12.55;;;7.72;;
61254;SDS011;47128;47.530;8.584;2024-01-30T09:02:20;12.32;;;7.53;;
61254;SDS011;47128;47.530;8.584;2024-01-30T09:07:50;10.90;;;7.03;;
61254;SDS011;47128;47.530;8.584;2024-01-30T09:10:16;10.05;;;7.10;;
61254;SDS011;47128;47.530;8.584;2024-01-30T09:12:42;10.02;;;5.63;;
61254;SDS011;47128;47.530;8.584;2024-01-30T09:15:08;12.38;;;6.85;;
61254;SDS011;47128;47.530;8.584;2024-01-30T09:17:35;10.55;;;6.85;;
61254;SDS011;47128;47.530;8.584;2024-01-30T09:20:01;11.15;;;6.13;;
61254;SDS011;47128;47.530;8.584;2024-01-30T09:22:27;10.10;;;5.97;;
61254;SDS011;47128;47.530;8.584;2024-01-30T09:24:53;10.85;;;6.38;;
61254;SDS011;47128;47.530;8.584;2024-01-30T09:27:22;11.27;;;6.60;;
61254;SDS011;47128;47.530;8.584;2024-01-30T09:29:51;11.27;;;6.40;;
61254;SDS011;47128;47.530;8.584;2024-01-30T09:32:17;9.43;;;6.30;;
61254;SDS011;47128;47.530;8.584;2024-01-30T09:34:44;8.80;;;6.72;;
61254;SDS011;47128;47.530;8.584;2024-01-30T09:40:10;9.32;;;6.25;;
61254;SDS011;47128;47.530;8.584;2024-01-30T09:42:37;9.77;;;6.43;;
61254;SDS011;47128;47.530;8.584;2024-01-30T09:45:04;10.10;;;6.30;;
61254;SDS011;47128;47.530;8.584;2024-01-30T09:47:32;8.90;;;6.60;;
61254;SDS011;47128;47.530;8.584;2024-01-30T09:53:02;9.27;;;6.55;;
61254;SDS011;47128;47.530;8.584;2024-01-30T09:58:32;6.53;;;5.15;;
61254;SDS011;47128;47.530;8.584;2024-01-30T10:00:58;6.43;;;5.03;;
61254;SDS011;47128;47.530;8.584;2024-01-30T10:03:24;7.53;;;4.57;;
61254;SDS011;47128;47.530;8.584;2024-01-30T10:05:51;8.13;;;5.05;;
61254;SDS011;47128;47.530;8.584;2024-01-30T10:08:18;5.07;;;4.57;;
61254;SDS011;47128;47.530;8.584;2024-01-30T10:10:47;5.38;;;4.50;;
61254;SDS011;47128;47.530;8.584;2024-01-30T10:13:15;5.03;;;3.92;;
61254;SDS011;47128;47.530;8.584;2024-01-30T10:15:42;6.40;;;4.55;;
61254;SDS011;47128;47.530;8.584;2024-01-30T10:18:10;5.40;;;4.60;;
61254;SDS011;47128;47.530;8.584;2024-01-30T10:20:36;5.90;;;4.70;;
61254;SDS011;47128;47.530;8.584;2024-01-30T10:23:03;5.65;;;4.72;;
61254;SDS011;47128;47.530;8.584;2024-01-30T10:25:30;6.82;;;5.30;;
61254;SDS011;47128;47.530;8.584;2024-01-30T10:27:59;8.10;;;4.93;;
61254;SDS011;47128;47.530;8.584;2024-01-30T10:30:26;8.63;;;5.05;;
61254;SDS011;47128;47.530;8.584;2024-01-30T10:39:00;7.13;;;4.68;;
61254;SDS011;47128;47.530;8.584;2024-01-30T10:47:35;7.20;;;5.22;;
61254;SDS011;47128;47.530;8.584;2024-01-30T10:53:06;6.05;;;4.65;;
61254;SDS011;47128;47.530;8.584;2024-01-30T10:55:34;6.13;;;4.57;;
61254;SDS011;47128;47.530;8.584;2024-01-30T10:58:01;5.05;;;4.25;;
61254;SDS011;47128;47.530;8.584;2024-01-30T11:00:28;5.63;;;4.57;;
61254;SDS011;47128;47.530;8.584;2024-01-30T11:02:55;5.75;;;4.93;;
61254;SDS011;47128;47.530;8.584;2024-01-30T11:05:25;5.43;;;4.60;;
61254;SDS011;47128;47.530;8.584;2024-01-30T11:14:00;6.10;;;4.90;;
61254;SDS011;47128;47.530;8.584;2024-01-30T11:19:30;8.07;;;5.73;;
61254;SDS011;47128;47.530;8.584;2024-01-30T11:22:01;7.47;;;5.40;;
61254;SDS011;47128;47.530;8.584;2024-01-30T11:24:30;9.75;;;5.93;;
61254;SDS011;47128;47.530;8.584;2024-01-30T11:35:30;7.82;;;5.75;;
61254;SDS011;47128;47.530;8.584;2024-01-30T11:37:59;9.70;;;6.75;;
61254;SDS011;47128;47.530;8.584;2024-01-30T11:40:28;8.55;;;6.07;;
61254;SDS011;47128;47.530;8.584;2024-01-30T11:42:55;8.93;;;5.72;;
61254;SDS011;47128;47.530;8.584;2024-01-30T11:45:22;9.50;;;6.22;;
61254;SDS011;47128;47.530;8.584;2024-01-30T11:47:48;7.63;;;5.60;;
61254;SDS011;47128;47.530;8.584;2024-01-30T11:50:14;8.85;;;6.30;;
61254;SDS011;47128;47.530;8.584;2024-01-30T11:52:40;6.63;;;5.10;;
61254;SDS011;47128;47.530;8.584;2024-01-30T11:55:08;7.75;;;5.15;;
61254;SDS011;47128;47.530;8.584;2024-01-30T11:57:35;7.13;;;5.72;;
61254;SDS011;47128;47.530;8.584;2024-01-30T12:00:02;7.72;;;5.57;;
61254;SDS011;47128;47.530;8.584;2024-01-30T12:02:41;7.13;;;5.55;;
61254;SDS011;47128;47.530;8.584;2024-01-30T12:05:08;7.80;;;5.35;;
61254;SDS011;47128;47.530;8.584;2024-01-30T12:07:34;7.63;;;5.75;;
61254;SDS011;47128;47.530;8.584;2024-01-30T12:10:00;6.82;;;5.47;;
61254;SDS011;47128;47.530;8.584;2024-01-30T12:12:27;7.60;;;5.63;;
61254;SDS011;47128;47.530;8.584;2024-01-30T12:14:55;5.85;;;5.20;;
61254;SDS011;47128;47.530;8.584;2024-01-30T12:17:28;6.20;;;5.40;;
61254;SDS011;47128;47.530;8.584;2024-01-30T12:20:07;6.82;;;5.32;;
61254;SDS011;47128;47.530;8.584;2024-01-30T12:22:38;6.78;;;5.63;;
61254;SDS011;47128;47.530;8.584;2024-01-30T12:28:08;8.55;;;5.75;;
61254;SDS011;47128;47.530;8.584;2024-01-30T12:33:37;6.10;;;5.50;;
61254;SDS011;47128;47.530;8.584;2024-01-30T12:39:10;8.70;;;6.38;;
61254;SDS011;47128;47.530;8.584;2024-01-30T12:41:38;6.43;;;5.70;;
61254;SDS011;47128;47.530;8.584;2024-01-30T12:44:04;8.35;;;5.55;;
61254;SDS011;47128;47.530;8.584;2024-01-30T12:49:31;7.38;;;5.97;;
61254;SDS011;47128;47.530;8.584;2024-01-30T12:51:58;8.43;;;6.88;;
61254;SDS011;47128;47.530;8.584;2024-01-30T12:54:24;7.63;;;5.50;;
61254;SDS011;47128;47.530;8.584;2024-01-30T12:56:50;7.10;;;5.60;;
61254;SDS011;47128;47.530;8.584;2024-01-30T12:59:16;8.52;;;5.68;;
61254;SDS011;47128;47.530;8.584;2024-01-30T13:01:43;10.63;;;6.47;;
61254;SDS011;47128;47.530;8.584;2024-01-30T13:04:09;8.55;;;5.82;;
61254;SDS011;47128;47.530;8.584;2024-01-30T13:06:35;8.82;;;6.47;;
61254;SDS011;47128;47.530;8.584;2024-01-30T13:09:01;8.30;;;5.65;;
61254;SDS011;47128;47.530;8.584;2024-01-30T13:11:28;7.05;;;5.40;;
61254;SDS011;47128;47.530;8.584;2024-01-30T13:13:54;8.02;;;5.68;;
61254;SDS011;47128;47.530;8.584;2024-01-30T13:16:25;8.35;;;6.18;;
61254;SDS011;47128;47.530;8.584;2024-01-30T13:18:52;8.20;;;5.88;;
61254;SDS011;47128;47.530;8.584;2024-01-30T13:21:20;8.40;;;6.15;;
61254;SDS011;47128;47.530;8.584;2024-01-30T13:26:50;8.60;;;6.60;;
61254;SDS011;47128;47.530;8.584;2024-01-30T13:29:18;9.88;;;6.68;;
61254;SDS011;47128;47.530;8.584;2024-01-30T13:31:44;8.57;;;6.60;;
61254;SDS011;47128;47.530;8.584;2024-01-30T13:34:12;10.98;;;6.95;;
61254;SDS011;47128;47.530;8.584;2024-01-30T13:36:38;9.35;;;6.70;;
61254;SDS011;47128;47.530;8.584;2024-01-30T13:39:05;10.60;;;7.10;;
61254;SDS011;47128;47.530;8.584;2024-01-30T13:41:34;9.82;;;7.38;;
61254;SDS011;47128;47.530;8.584;2024-01-30T13:44:01;9.48;;;7.32;;
61254;SDS011;47128;47.530;8.584;2024-01-30T13:46:29;9.02;;;7.05;;
61254;SDS011;47128;47.530;8.584;2024-01-30T13:48:55;11.00;;;7.05;;
61254;SDS011;47128;47.530;8.584;2024-01-30T13:51:21;11.75;;;7.60;;
61254;SDS011;47128;47.530;8.584;2024-01-30T13:53:48;9.80;;;7.13;;
61254;SDS011;47128;47.530;8.584;2024-01-30T13:56:17;11.13;;;7.60;;
61254;SDS011;47128;47.530;8.584;2024-01-30T13:58:44;13.23;;;7.68;;
61254;SDS011;47128;47.530;8.584;2024-01-30T14:01:10;11.15;;;7.45;;
61254;SDS011;47128;47.530;8.584;2024-01-30T14:03:43;9.80;;;7.10;;
61254;SDS011;47128;47.530;8.584;2024-01-30T14:06:10;11.15;;;7.63;;
61254;SDS011;47128;47.530;8.584;2024-01-30T14:11:41;14.35;;;7.55;;
61254;SDS011;47128;47.530;8.584;2024-01-30T14:14:08;9.48;;;7.13;;
61254;SDS011;47128;47.530;8.584;2024-01-30T14:16:34;11.45;;;7.85;;
61254;SDS011;47128;47.530;8.584;2024-01-30T14:19:01;10.32;;;7.05;;
61254;SDS011;47128;47.530;8.584;2024-01-30T14:21:27;13.27;;;8.20;;
61254;SDS011;47128;47.530;8.584;2024-01-30T14:23:54;12.80;;;7.70;;
61254;SDS011;47128;47.530;8.584;2024-01-30T14:26:20;14.55;;;8.40;;
61254;SDS011;47128;47.530;8.584;2024-01-30T14:28:46;11.57;;;7.95;;
61254;SDS011;47128;47.530;8.584;2024-01-30T14:31:12;11.85;;;7.63;;
61254;SDS011;47128;47.530;8.584;2024-01-30T14:33:39;12.60;;;8.13;;
61254;SDS011;47128;47.530;8.584;2024-01-30T14:36:05;13.20;;;8.38;;
61254;SDS011;47128;47.530;8.584;2024-01-30T14:38:33;13.38;;;7.80;;
61254;SDS011;47128;47.530;8.584;2024-01-30T14:40:59;11.10;;;7.88;;
61254;SDS011;47128;47.530;8.584;2024-01-30T14:43:25;10.73;;;8.02;;
61254;SDS011;47128;47.530;8.584;2024-01-30T14:45:51;11.15;;;7.53;;
61254;SDS011;47128;47.530;8.584;2024-01-30T14:56:51;13.00;;;8.40;;
61254;SDS011;47128;47.530;8.584;2024-01-30T14:59:18;13.60;;;8.45;;
61254;SDS011;47128;47.530;8.584;2024-01-30T15:01:44;13.80;;;8.65;;
61254;SDS011;47128;47.530;8.584;2024-01-30T15:07:14;12.35;;;8.50;;
61254;SDS011;47128;47.530;8.584;2024-01-30T15:09:40;14.07;;;9.25;;
61254;SDS011;47128;47.530;8.584;2024-01-30T15:15:09;11.77;;;8.77;;
61254;SDS011;47128;47.530;8.584;2024-01-30T15:17:36;12.50;;;8.85;;
61254;SDS011;47128;47.530;8.584;2024-01-30T15:20:02;13.05;;;8.70;;
61254;SDS011;47128;47.530;8.584;2024-01-30T15:22:29;12.98;;;8.35;;
61254;SDS011;47128;47.530;8.584;2024-01-30T15:24:55;14.98;;;8.27;;
61254;SDS011;47128;47.530;8.584;2024-01-30T15:27:22;12.85;;;8.38;;
61254;SDS011;47128;47.530;8.584;2024-01-30T15:29:50;14.55;;;8.98;;
61254;SDS011;47128;47.530;8.584;2024-01-30T15:32:16;14.60;;;9.05;;
61254;SDS011;47128;47.530;8.584;2024-01-30T15:34:42;15.20;;;8.38;;
61254;SDS011;47128;47.530;8.584;2024-01-30T15:37:09;11.75;;;8.88;;
61254;SDS011;47128;47.530;8.584;2024-01-30T15:39:35;14.13;;;9.25;;
61254;SDS011;47128;47.530;8.584;2024-01-30T15:42:16;14.10;;;7.93;;
61254;SDS011;47128;47.530;8.584;2024-01-30T15:44:42;17.52;;;10.18;;
61254;SDS011;47128;47.530;8.584;2024-01-30T15:53:16;15.00;;;10.55;;
61254;SDS011;47128;47.530;8.584;2024-01-30T15:58:47;14.38;;;9.07;;
61254;SDS011;47128;47.530;8.584;2024-01-30T16:01:15;18.38;;;9.48;;
61254;SDS011;47128;47.530;8.584;2024-01-30T16:03:42;12.68;;;8.63;;
61254;SDS011;47128;47.530;8.584;2024-01-30T16:06:23;19.52;;;9.50;;
61254;SDS011;47128;47.530;8.584;2024-01-30T16:08:49;16.55;;;9.38;;
61254;SDS011;47128;47.530;8.584;2024-01-30T16:11:16;16.65;;;9.85;;
61254;SDS011;47128;47.530;8.584;2024-01-30T16:13:43;18.08;;;9.93;;